sensor_id;sensor_type;location;lat;lon;timestamp;temperature;humidity
8896;DHT22;4484;48.928;10.066;2022-12-11T00:00:14;-1.80;99.90
8896;DHT22;4484;48.928;10.066;2022-12-11T00:02:41;-1.80;99.90
8896;DHT22;4484;48.928;10.066;2022-12-11T00:05:08;-1.80;99.90
8896;DHT22;4484;48.928;10.066;2022-12-11T00:07:36;-1.80;99.90
8896;DHT22;4484;48.928;10.066;2022-12-11T00:10:04;-1.80;99.90
8896;DHT22;4484;48.928;10.066;2022-12-11T00:12:31;-1.80;99.90
8896;DHT22;4484;48.928;10.066;2022-12-11T00:14:58;-1.80;99.90
8896;DHT22;4484;48.928;10.066;2022-12-11T00:17:25;-1.90;99.90
8896;DHT22;4484;48.928;10.066;2022-12-11T00:19:52;-1.90;99.90
8896;DHT22;4484;48.928;10.066;2022-12-11T00:22:20;-1.90;99.90
8896;DHT22;4484;48.928;10.066;2022-12-11T00:24:47;-1.80;99.90
8896;DHT22;4484;48.928;10.066;2022-12-11T00:27:14;-1.80;99.90
8896;DHT22;4484;48.928;10.066;2022-12-11T00:29:41;-1.80;99.90
8896;DHT22;4484;48.928;10.066;2022-12-11T00:32:08;-1.80;99.90
8896;DHT22;4484;48.928;10.066;2022-12-11T00:34:35;-1.80;99.90
8896;DHT22;4484;48.928;10.066;2022-12-11T00:37:02;-1.90;99.90
8896;DHT22;4484;48.928;10.066;2022-12-11T00:39:29;-1.90;99.90
8896;DHT22;4484;48.928;10.066;2022-12-11T00:41:56;-1.90;99.90
8896;DHT22;4484;48.928;10.066;2022-12-11T00:44:24;-1.80;99.90
8896;DHT22;4484;48.928;10.066;2022-12-11T00:46:50;-1.80;99.90
8896;DHT22;4484;48.928;10.066;2022-12-11T00:49:18;-1.80;99.90
8896;DHT22;4484;48.928;10.066;2022-12-11T00:51:45;-1.80;99.90
8896;DHT22;4484;48.928;10.066;2022-12-11T00:54:12;-1.80;99.90
8896;DHT22;4484;48.928;10.066;2022-12-11T00:56:39;-1.80;99.90
8896;DHT22;4484;48.928;10.066;2022-12-11T00:59:06;-1.80;99.90
8896;DHT22;4484;48.928;10.066;2022-12-11T01:01:33;-1.80;99.90
8896;DHT22;4484;48.928;10.066;2022-12-11T01:04:00;-1.80;99.90
8896;DHT22;4484;48.928;10.066;2022-12-11T01:06:28;-1.70;99.90
8896;DHT22;4484;48.928;10.066;2022-12-11T01:08:56;-1.70;99.90
8896;DHT22;4484;48.928;10.066;2022-12-11T01:11:42;-1.70;99.90
8896;DHT22;4484;48.928;10.066;2022-12-11T01:14:10;-1.60;99.90
8896;DHT22;4484;48.928;10.066;2022-12-11T01:16:37;-1.60;99.90
8896;DHT22;4484;48.928;10.066;2022-12-11T01:19:04;-1.70;99.90
8896;DHT22;4484;48.928;10.066;2022-12-11T01:21:30;-1.70;99.90
8896;DHT22;4484;48.928;10.066;2022-12-11T01:23:57;-1.70;99.90
8896;DHT22;4484;48.928;10.066;2022-12-11T01:26:24;-1.70;99.90
8896;DHT22;4484;48.928;10.066;2022-12-11T01:28:51;-1.70;99.90
8896;DHT22;4484;48.928;10.066;2022-12-11T01:31:19;-1.70;99.90
8896;DHT22;4484;48.928;10.066;2022-12-11T01:33:46;-1.70;99.90
8896;DHT22;4484;48.928;10.066;2022-12-11T01:36:17;-1.70;99.90
8896;DHT22;4484;48.928;10.066;2022-12-11T01:38:45;-1.80;99.90
8896;DHT22;4484;48.928;10.066;2022-12-11T01:41:13;-1.80;99.90
8896;DHT22;4484;48.928;10.066;2022-12-11T01:46:27;-1.80;99.90
8896;DHT22;4484;48.928;10.066;2022-12-11T01:48:55;-1.70;99.90
8896;DHT22;4484;48.928;10.066;2022-12-11T01:51:23;-1.80;99.90
8896;DHT22;4484;48.928;10.066;2022-12-11T01:53:59;-1.80;99.90
8896;DHT22;4484;48.928;10.066;2022-12-11T01:56:29;-1.80;99.90
8896;DHT22;4484;48.928;10.066;2022-12-11T01:58:59;-1.80;99.90
8896;DHT22;4484;48.928;10.066;2022-12-11T02:01:36;-1.80;99.90
8896;DHT22;4484;48.928;10.066;2022-12-11T02:04:05;-1.80;99.90
8896;DHT22;4484;48.928;10.066;2022-12-11T02:06:41;-1.80;99.90
8896;DHT22;4484;48.928;10.066;2022-12-11T02:09:15;-1.70;99.90
8896;DHT22;4484;48.928;10.066;2022-12-11T02:28:03;-1.90;99.90
8896;DHT22;4484;48.928;10.066;2022-12-11T02:30:32;-1.90;99.90
8896;DHT22;4484;48.928;10.066;2022-12-11T02:33:02;-1.90;99.90
8896;DHT22;4484;48.928;10.066;2022-12-11T02:35:34;-1.90;99.90
8896;DHT22;4484;48.928;10.066;2022-12-11T02:41:07;-1.90;99.90
8896;DHT22;4484;48.928;10.066;2022-12-11T02:43:37;-1.90;99.90
8896;DHT22;4484;48.928;10.066;2022-12-11T02:46:06;-2.00;99.90
8896;DHT22;4484;48.928;10.066;2022-12-11T02:48:35;-2.00;99.90
8896;DHT22;4484;48.928;10.066;2022-12-11T02:51:03;-2.00;99.90
8896;DHT22;4484;48.928;10.066;2022-12-11T02:53:32;-2.00;99.90
8896;DHT22;4484;48.928;10.066;2022-12-11T02:56:23;-2.00;99.90
8896;DHT22;4484;48.928;10.066;2022-12-11T02:58:56;-2.00;99.90
8896;DHT22;4484;48.928;10.066;2022-12-11T03:01:25;-2.00;99.90
8896;DHT22;4484;48.928;10.066;2022-12-11T03:03:54;-2.00;99.90
8896;DHT22;4484;48.928;10.066;2022-12-11T03:06:31;-2.00;99.90
8896;DHT22;4484;48.928;10.066;2022-12-11T03:09:00;-2.10;99.90
8896;DHT22;4484;48.928;10.066;2022-12-11T03:11:27;-2.10;99.90
8896;DHT22;4484;48.928;10.066;2022-12-11T03:13:54;-2.10;99.90
8896;DHT22;4484;48.928;10.066;2022-12-11T03:16:34;-2.10;99.90
8896;DHT22;4484;48.928;10.066;2022-12-11T03:19:12;-2.10;99.90
8896;DHT22;4484;48.928;10.066;2022-12-11T03:21:46;-2.10;99.90
8896;DHT22;4484;48.928;10.066;2022-12-11T03:24:28;-2.20;99.90
8896;DHT22;4484;48.928;10.066;2022-12-11T03:27:03;-2.30;99.90
8896;DHT22;4484;48.928;10.066;2022-12-11T03:29:40;-2.30;99.90
8896;DHT22;4484;48.928;10.066;2022-12-11T03:32:15;-2.40;99.90
8896;DHT22;4484;48.928;10.066;2022-12-11T03:37:31;-2.40;99.90
8896;DHT22;4484;48.928;10.066;2022-12-11T03:40:04;-2.40;99.90
8896;DHT22;4484;48.928;10.066;2022-12-11T03:42:33;-2.40;99.90
8896;DHT22;4484;48.928;10.066;2022-12-11T03:45:01;-2.40;99.90
8896;DHT22;4484;48.928;10.066;2022-12-11T03:47:30;-2.40;99.90
8896;DHT22;4484;48.928;10.066;2022-12-11T03:49:58;-2.40;99.90
8896;DHT22;4484;48.928;10.066;2022-12-11T03:52:27;-2.50;99.90
8896;DHT22;4484;48.928;10.066;2022-12-11T03:54:58;-2.50;99.90
8896;DHT22;4484;48.928;10.066;2022-12-11T03:57:30;-2.50;99.90
8896;DHT22;4484;48.928;10.066;2022-12-11T03:59:58;-2.50;99.90
8896;DHT22;4484;48.928;10.066;2022-12-11T04:02:24;-2.60;99.90
8896;DHT22;4484;48.928;10.066;2022-12-11T04:04:51;-2.60;99.90
8896;DHT22;4484;48.928;10.066;2022-12-11T04:07:18;-2.70;99.90
8896;DHT22;4484;48.928;10.066;2022-12-11T04:09:45;-2.70;99.90
8896;DHT22;4484;48.928;10.066;2022-12-11T04:12:12;-2.70;99.90
8896;DHT22;4484;48.928;10.066;2022-12-11T04:14:40;-2.70;99.90
8896;DHT22;4484;48.928;10.066;2022-12-11T04:17:25;-2.70;99.90
8896;DHT22;4484;48.928;10.066;2022-12-11T04:20:11;-2.70;99.90
8896;DHT22;4484;48.928;10.066;2022-12-11T04:22:57;-2.70;99.90
8896;DHT22;4484;48.928;10.066;2022-12-11T04:25:42;-2.70;99.90
8896;DHT22;4484;48.928;10.066;2022-12-11T04:28:09;-2.60;99.90
8896;DHT22;4484;48.928;10.066;2022-12-11T04:30:36;-2.60;99.90
8896;DHT22;4484;48.928;10.066;2022-12-11T04:33:03;-2.60;99.90
8896;DHT22;4484;48.928;10.066;2022-12-11T04:35:30;-2.60;99.90
8896;DHT22;4484;48.928;10.066;2022-12-11T04:37:57;-2.60;99.90
8896;DHT22;4484;48.928;10.066;2022-12-11T04:40:24;-2.60;99.90
8896;DHT22;4484;48.928;10.066;2022-12-11T04:42:51;-2.60;99.90
8896;DHT22;4484;48.928;10.066;2022-12-11T04:45:18;-2.60;99.90
8896;DHT22;4484;48.928;10.066;2022-12-11T04:47:45;-2.60;99.90
8896;DHT22;4484;48.928;10.066;2022-12-11T04:50:13;-2.60;99.90
8896;DHT22;4484;48.928;10.066;2022-12-11T04:52:41;-2.60;99.90
8896;DHT22;4484;48.928;10.066;2022-12-11T04:55:09;-2.60;99.90
8896;DHT22;4484;48.928;10.066;2022-12-11T04:57:38;-2.60;99.90
8896;DHT22;4484;48.928;10.066;2022-12-11T05:00:07;-2.50;99.90
8896;DHT22;4484;48.928;10.066;2022-12-11T05:02:35;-2.60;99.90
8896;DHT22;4484;48.928;10.066;2022-12-11T05:05:04;-2.60;99.90
8896;DHT22;4484;48.928;10.066;2022-12-11T05:07:31;-2.60;99.90
8896;DHT22;4484;48.928;10.066;2022-12-11T05:09:58;-2.60;99.90
8896;DHT22;4484;48.928;10.066;2022-12-11T05:12:25;-2.60;99.90
8896;DHT22;4484;48.928;10.066;2022-12-11T05:14:53;-2.60;99.90
8896;DHT22;4484;48.928;10.066;2022-12-11T05:17:20;-2.60;99.90
8896;DHT22;4484;48.928;10.066;2022-12-11T05:19:49;-2.50;99.90
8896;DHT22;4484;48.928;10.066;2022-12-11T05:22:17;-2.50;99.90
8896;DHT22;4484;48.928;10.066;2022-12-11T05:24:44;-2.50;99.90
8896;DHT22;4484;48.928;10.066;2022-12-11T05:27:11;-2.50;99.90
8896;DHT22;4484;48.928;10.066;2022-12-11T05:29:38;-2.60;99.90
8896;DHT22;4484;48.928;10.066;2022-12-11T05:32:05;-2.60;99.90
8896;DHT22;4484;48.928;10.066;2022-12-11T05:34:32;-2.60;99.90
8896;DHT22;4484;48.928;10.066;2022-12-11T05:36:59;-2.50;99.90
8896;DHT22;4484;48.928;10.066;2022-12-11T05:39:25;-2.50;99.90
8896;DHT22;4484;48.928;10.066;2022-12-11T05:41:52;-2.50;99.90
8896;DHT22;4484;48.928;10.066;2022-12-11T05:44:19;-2.50;99.90
8896;DHT22;4484;48.928;10.066;2022-12-11T05:46:46;-2.50;99.90
8896;DHT22;4484;48.928;10.066;2022-12-11T05:49:13;-2.60;99.90
8896;DHT22;4484;48.928;10.066;2022-12-11T05:51:45;-2.50;99.90
8896;DHT22;4484;48.928;10.066;2022-12-11T05:54:12;-2.50;99.90
8896;DHT22;4484;48.928;10.066;2022-12-11T05:56:39;-2.50;99.90
8896;DHT22;4484;48.928;10.066;2022-12-11T05:59:06;-2.60;99.90
8896;DHT22;4484;48.928;10.066;2022-12-11T06:01:38;-2.60;99.90
8896;DHT22;4484;48.928;10.066;2022-12-11T06:04:08;-2.60;99.90
8896;DHT22;4484;48.928;10.066;2022-12-11T06:06:35;-2.60;99.90
8896;DHT22;4484;48.928;10.066;2022-12-11T06:09:03;-2.60;99.90
8896;DHT22;4484;48.928;10.066;2022-12-11T06:11:32;-2.60;99.90
8896;DHT22;4484;48.928;10.066;2022-12-11T06:14:01;-2.60;99.90
8896;DHT22;4484;48.928;10.066;2022-12-11T06:16:28;-2.60;99.90
8896;DHT22;4484;48.928;10.066;2022-12-11T06:18:55;-2.60;99.90
8896;DHT22;4484;48.928;10.066;2022-12-11T06:21:29;-2.60;99.90
8896;DHT22;4484;48.928;10.066;2022-12-11T06:23:57;-2.60;99.90
8896;DHT22;4484;48.928;10.066;2022-12-11T06:26:27;-2.70;99.90
8896;DHT22;4484;48.928;10.066;2022-12-11T06:28:54;-2.70;99.90
8896;DHT22;4484;48.928;10.066;2022-12-11T06:31:21;-2.70;99.90
8896;DHT22;4484;48.928;10.066;2022-12-11T06:33:48;-2.70;99.90
8896;DHT22;4484;48.928;10.066;2022-12-11T06:36:18;-2.70;99.90
8896;DHT22;4484;48.928;10.066;2022-12-11T06:38:45;-2.60;99.90
8896;DHT22;4484;48.928;10.066;2022-12-11T06:41:12;-2.60;99.90
8896;DHT22;4484;48.928;10.066;2022-12-11T06:43:41;-2.60;99.90
8896;DHT22;4484;48.928;10.066;2022-12-11T06:46:16;-2.60;99.90
8896;DHT22;4484;48.928;10.066;2022-12-11T06:48:45;-2.50;99.90
8896;DHT22;4484;48.928;10.066;2022-12-11T06:51:15;-2.50;99.90
8896;DHT22;4484;48.928;10.066;2022-12-11T06:53:42;-2.40;99.90
8896;DHT22;4484;48.928;10.066;2022-12-11T06:56:14;-2.40;99.90
8896;DHT22;4484;48.928;10.066;2022-12-11T06:58:42;-2.40;99.90
8896;DHT22;4484;48.928;10.066;2022-12-11T07:01:18;-2.40;99.90
8896;DHT22;4484;48.928;10.066;2022-12-11T07:03:46;-2.40;99.90
8896;DHT22;4484;48.928;10.066;2022-12-11T07:06:14;-2.30;99.90
8896;DHT22;4484;48.928;10.066;2022-12-11T07:08:41;-2.40;99.90
8896;DHT22;4484;48.928;10.066;2022-12-11T07:11:13;-2.40;99.90
8896;DHT22;4484;48.928;10.066;2022-12-11T07:13:41;-2.40;99.90
8896;DHT22;4484;48.928;10.066;2022-12-11T07:16:09;-2.30;99.90
8896;DHT22;4484;48.928;10.066;2022-12-11T07:18:42;-2.30;99.90
8896;DHT22;4484;48.928;10.066;2022-12-11T07:21:12;-2.30;99.90
8896;DHT22;4484;48.928;10.066;2022-12-11T07:23:40;-2.30;99.90
8896;DHT22;4484;48.928;10.066;2022-12-11T07:26:11;-2.30;99.90
8896;DHT22;4484;48.928;10.066;2022-12-11T07:28:38;-2.30;99.90
8896;DHT22;4484;48.928;10.066;2022-12-11T07:31:07;-2.40;99.90
8896;DHT22;4484;48.928;10.066;2022-12-11T07:33:35;-2.40;99.90
8896;DHT22;4484;48.928;10.066;2022-12-11T07:36:06;-2.40;99.90
8896;DHT22;4484;48.928;10.066;2022-12-11T07:38:34;-2.40;99.90
8896;DHT22;4484;48.928;10.066;2022-12-11T07:41:10;-2.40;99.90
8896;DHT22;4484;48.928;10.066;2022-12-11T07:43:37;-2.30;99.90
8896;DHT22;4484;48.928;10.066;2022-12-11T07:46:05;-2.30;99.90
8896;DHT22;4484;48.928;10.066;2022-12-11T07:48:35;-2.30;99.90
8896;DHT22;4484;48.928;10.066;2022-12-11T07:53:48;-2.30;99.90
8896;DHT22;4484;48.928;10.066;2022-12-11T07:56:16;-2.30;99.90
8896;DHT22;4484;48.928;10.066;2022-12-11T07:58:44;-2.30;99.90
8896;DHT22;4484;48.928;10.066;2022-12-11T08:01:15;-2.20;99.90
8896;DHT22;4484;48.928;10.066;2022-12-11T08:03:42;-2.20;99.90
8896;DHT22;4484;48.928;10.066;2022-12-11T08:06:10;-2.20;99.90
8896;DHT22;4484;48.928;10.066;2022-12-11T08:08:38;-2.20;99.90
8896;DHT22;4484;48.928;10.066;2022-12-11T08:11:07;-2.20;99.90
8896;DHT22;4484;48.928;10.066;2022-12-11T08:13:35;-2.20;99.90
8896;DHT22;4484;48.928;10.066;2022-12-11T08:16:07;-2.20;99.90
8896;DHT22;4484;48.928;10.066;2022-12-11T08:18:35;-2.20;99.90
8896;DHT22;4484;48.928;10.066;2022-12-11T08:21:11;-2.10;99.90
8896;DHT22;4484;48.928;10.066;2022-12-11T08:23:38;-2.10;99.90
8896;DHT22;4484;48.928;10.066;2022-12-11T08:26:07;-2.10;99.90
8896;DHT22;4484;48.928;10.066;2022-12-11T08:28:34;-2.00;99.90
8896;DHT22;4484;48.928;10.066;2022-12-11T08:31:04;-1.90;99.90
8896;DHT22;4484;48.928;10.066;2022-12-11T08:33:32;-1.90;99.90
8896;DHT22;4484;48.928;10.066;2022-12-11T08:36:07;-1.80;99.90
8896;DHT22;4484;48.928;10.066;2022-12-11T08:38:34;-1.80;99.90
8896;DHT22;4484;48.928;10.066;2022-12-11T08:41:31;-1.80;99.90
8896;DHT22;4484;48.928;10.066;2022-12-11T08:43:58;-1.80;99.90
8896;DHT22;4484;48.928;10.066;2022-12-11T08:46:29;-1.80;99.90
8896;DHT22;4484;48.928;10.066;2022-12-11T08:48:57;-1.80;99.90
8896;DHT22;4484;48.928;10.066;2022-12-11T08:51:27;-1.70;99.90
8896;DHT22;4484;48.928;10.066;2022-12-11T08:53:58;-1.70;99.90
8896;DHT22;4484;48.928;10.066;2022-12-11T08:56:26;-1.70;99.90
8896;DHT22;4484;48.928;10.066;2022-12-11T08:58:53;-1.60;99.90
8896;DHT22;4484;48.928;10.066;2022-12-11T09:01:25;-1.60;99.90
8896;DHT22;4484;48.928;10.066;2022-12-11T09:03:54;-1.40;99.90
8896;DHT22;4484;48.928;10.066;2022-12-11T09:06:23;-1.30;99.90
8896;DHT22;4484;48.928;10.066;2022-12-11T09:08:51;-1.20;99.90
8896;DHT22;4484;48.928;10.066;2022-12-11T09:11:26;-1.10;99.90
8896;DHT22;4484;48.928;10.066;2022-12-11T09:13:53;-1.20;99.90
8896;DHT22;4484;48.928;10.066;2022-12-11T09:16:22;-1.20;99.90
8896;DHT22;4484;48.928;10.066;2022-12-11T09:18:51;-1.20;99.90
8896;DHT22;4484;48.928;10.066;2022-12-11T09:21:25;-1.20;99.90
8896;DHT22;4484;48.928;10.066;2022-12-11T09:23:58;-1.30;99.90
8896;DHT22;4484;48.928;10.066;2022-12-11T09:26:27;-1.30;99.90
8896;DHT22;4484;48.928;10.066;2022-12-11T09:28:54;-1.30;99.90
8896;DHT22;4484;48.928;10.066;2022-12-11T09:31:30;-1.30;99.90
8896;DHT22;4484;48.928;10.066;2022-12-11T09:34:03;-1.30;99.90
8896;DHT22;4484;48.928;10.066;2022-12-11T09:36:31;-1.30;99.90
8896;DHT22;4484;48.928;10.066;2022-12-11T09:39:03;-1.20;99.90
8896;DHT22;4484;48.928;10.066;2022-12-11T09:41:51;-1.10;99.90
8896;DHT22;4484;48.928;10.066;2022-12-11T09:47:26;-1.00;99.90
8896;DHT22;4484;48.928;10.066;2022-12-11T09:55:22;-0.80;99.90
8896;DHT22;4484;48.928;10.066;2022-12-11T09:58:02;-0.70;99.90
8896;DHT22;4484;48.928;10.066;2022-12-11T10:06:22;-0.60;99.90
8896;DHT22;4484;48.928;10.066;2022-12-11T10:12:05;-0.60;99.90
8896;DHT22;4484;48.928;10.066;2022-12-11T10:17:11;-0.50;99.90
8896;DHT22;4484;48.928;10.066;2022-12-11T10:19:41;-0.40;99.90
8896;DHT22;4484;48.928;10.066;2022-12-11T10:22:22;-0.20;99.90
8896;DHT22;4484;48.928;10.066;2022-12-11T10:24:56;-0.10;99.90
8896;DHT22;4484;48.928;10.066;2022-12-11T10:27:38;-0.10;99.90
8896;DHT22;4484;48.928;10.066;2022-12-11T10:33:05;-0.10;99.90
8896;DHT22;4484;48.928;10.066;2022-12-11T10:35:49;-0.20;99.90
8896;DHT22;4484;48.928;10.066;2022-12-11T10:38:32;-0.20;99.90
8896;DHT22;4484;48.928;10.066;2022-12-11T10:41:04;-0.30;99.90
8896;DHT22;4484;48.928;10.066;2022-12-11T10:43:57;-0.30;99.90
8896;DHT22;4484;48.928;10.066;2022-12-11T10:46:27;-0.30;99.90
8896;DHT22;4484;48.928;10.066;2022-12-11T10:48:57;-0.30;99.90
8896;DHT22;4484;48.928;10.066;2022-12-11T10:56:50;-0.50;99.90
8896;DHT22;4484;48.928;10.066;2022-12-11T11:00:06;-0.60;99.90
8896;DHT22;4484;48.928;10.066;2022-12-11T11:02:34;-0.60;99.90
8896;DHT22;4484;48.928;10.066;2022-12-11T11:05:14;-0.70;99.90
8896;DHT22;4484;48.928;10.066;2022-12-11T11:07:42;-0.70;99.90
8896;DHT22;4484;48.928;10.066;2022-12-11T11:12:40;-0.70;99.90
8896;DHT22;4484;48.928;10.066;2022-12-11T11:17:46;-0.70;99.90
8896;DHT22;4484;48.928;10.066;2022-12-11T11:20:26;-0.70;99.90
8896;DHT22;4484;48.928;10.066;2022-12-11T11:22:56;-0.70;99.90
8896;DHT22;4484;48.928;10.066;2022-12-11T11:25:25;-0.70;99.90
8896;DHT22;4484;48.928;10.066;2022-12-11T11:30:28;-0.70;99.90
8896;DHT22;4484;48.928;10.066;2022-12-11T11:32:59;-0.70;99.90
8896;DHT22;4484;48.928;10.066;2022-12-11T11:35:30;-0.70;99.90
8896;DHT22;4484;48.928;10.066;2022-12-11T11:38:15;-0.60;99.90
8896;DHT22;4484;48.928;10.066;2022-12-11T11:40:54;-0.60;99.90
8896;DHT22;4484;48.928;10.066;2022-12-11T11:44:03;-0.60;99.90
8896;DHT22;4484;48.928;10.066;2022-12-11T11:46:43;-0.60;99.90
8896;DHT22;4484;48.928;10.066;2022-12-11T11:49:31;-0.60;99.90
8896;DHT22;4484;48.928;10.066;2022-12-11T11:55:15;-0.60;99.90
8896;DHT22;4484;48.928;10.066;2022-12-11T11:57:56;-0.60;99.90
8896;DHT22;4484;48.928;10.066;2022-12-11T12:00:26;-0.70;99.90
8896;DHT22;4484;48.928;10.066;2022-12-11T12:05:45;-0.80;99.90
8896;DHT22;4484;48.928;10.066;2022-12-11T12:14:06;-0.80;99.90
8896;DHT22;4484;48.928;10.066;2022-12-11T12:22:21;-0.80;99.90
8896;DHT22;4484;48.928;10.066;2022-12-11T12:27:49;-0.90;99.90
8896;DHT22;4484;48.928;10.066;2022-12-11T12:30:19;-0.90;99.90
8896;DHT22;4484;48.928;10.066;2022-12-11T12:33:14;-0.90;99.90
8896;DHT22;4484;48.928;10.066;2022-12-11T12:35:59;-0.90;99.90
8896;DHT22;4484;48.928;10.066;2022-12-11T12:44:12;-0.90;99.90
8896;DHT22;4484;48.928;10.066;2022-12-11T12:49:24;-0.90;99.90
8896;DHT22;4484;48.928;10.066;2022-12-11T12:51:54;-0.90;99.90
8896;DHT22;4484;48.928;10.066;2022-12-11T12:54:23;-1.00;99.90
8896;DHT22;4484;48.928;10.066;2022-12-11T12:56:54;-1.00;99.90
8896;DHT22;4484;48.928;10.066;2022-12-11T12:59:24;-1.00;99.90
8896;DHT22;4484;48.928;10.066;2022-12-11T13:01:58;-1.10;99.90
8896;DHT22;4484;48.928;10.066;2022-12-11T13:04:41;-1.10;99.90
8896;DHT22;4484;48.928;10.066;2022-12-11T13:07:27;-1.10;99.90
8896;DHT22;4484;48.928;10.066;2022-12-11T13:12:43;-1.20;99.90
8896;DHT22;4484;48.928;10.066;2022-12-11T13:17:49;-1.10;99.90
8896;DHT22;4484;48.928;10.066;2022-12-11T13:20:19;-1.20;99.90
8896;DHT22;4484;48.928;10.066;2022-12-11T13:25:45;-1.10;99.90
8896;DHT22;4484;48.928;10.066;2022-12-11T13:33:46;-1.20;99.90
8896;DHT22;4484;48.928;10.066;2022-12-11T13:38:54;-1.10;99.90
8896;DHT22;4484;48.928;10.066;2022-12-11T13:41:21;-1.10;99.90
8896;DHT22;4484;48.928;10.066;2022-12-11T13:43:49;-1.10;99.90
8896;DHT22;4484;48.928;10.066;2022-12-11T13:46:24;-1.10;99.90
8896;DHT22;4484;48.928;10.066;2022-12-11T13:49:22;-1.20;99.90
8896;DHT22;4484;48.928;10.066;2022-12-11T13:51:55;-1.20;99.90
8896;DHT22;4484;48.928;10.066;2022-12-11T13:54:22;-1.20;99.90
8896;DHT22;4484;48.928;10.066;2022-12-11T13:59:42;-1.10;99.90
8896;DHT22;4484;48.928;10.066;2022-12-11T14:02:22;-1.10;99.90
8896;DHT22;4484;48.928;10.066;2022-12-11T14:04:58;-1.10;99.90
8896;DHT22;4484;48.928;10.066;2022-12-11T14:07:29;-1.10;99.90
8896;DHT22;4484;48.928;10.066;2022-12-11T14:10:13;-1.20;99.90
8896;DHT22;4484;48.928;10.066;2022-12-11T14:15:20;-1.30;99.90
8896;DHT22;4484;48.928;10.066;2022-12-11T14:17:47;-1.30;99.90
8896;DHT22;4484;48.928;10.066;2022-12-11T14:20:29;-1.30;99.90
8896;DHT22;4484;48.928;10.066;2022-12-11T14:23:15;-1.30;99.90
8896;DHT22;4484;48.928;10.066;2022-12-11T14:25:54;-1.20;99.90
8896;DHT22;4484;48.928;10.066;2022-12-11T14:28:23;-1.20;99.90
8896;DHT22;4484;48.928;10.066;2022-12-11T14:30:57;-1.10;99.90
8896;DHT22;4484;48.928;10.066;2022-12-11T14:33:34;-1.10;99.90
8896;DHT22;4484;48.928;10.066;2022-12-11T14:36:03;-1.10;99.90
8896;DHT22;4484;48.928;10.066;2022-12-11T14:38:54;-1.10;99.90
8896;DHT22;4484;48.928;10.066;2022-12-11T14:41:41;-1.10;99.90
8896;DHT22;4484;48.928;10.066;2022-12-11T14:44:14;-1.10;99.90
8896;DHT22;4484;48.928;10.066;2022-12-11T14:46:48;-1.20;99.90
8896;DHT22;4484;48.928;10.066;2022-12-11T14:51:54;-1.30;99.90
8896;DHT22;4484;48.928;10.066;2022-12-11T14:54:44;-1.30;99.90
8896;DHT22;4484;48.928;10.066;2022-12-11T14:57:23;-1.30;99.90
8896;DHT22;4484;48.928;10.066;2022-12-11T14:59:52;-1.30;99.90
8896;DHT22;4484;48.928;10.066;2022-12-11T15:02:32;-1.40;99.90
8896;DHT22;4484;48.928;10.066;2022-12-11T15:07:43;-1.50;99.90
8896;DHT22;4484;48.928;10.066;2022-12-11T15:10:34;-1.60;99.90
8896;DHT22;4484;48.928;10.066;2022-12-11T15:13:03;-1.70;99.90
8896;DHT22;4484;48.928;10.066;2022-12-11T15:15:44;-1.70;99.90
8896;DHT22;4484;48.928;10.066;2022-12-11T15:18:25;-1.80;99.90
8896;DHT22;4484;48.928;10.066;2022-12-11T15:20:55;-1.80;99.90
8896;DHT22;4484;48.928;10.066;2022-12-11T15:23:22;-1.90;99.90
8896;DHT22;4484;48.928;10.066;2022-12-11T15:25:51;-1.90;99.90
8896;DHT22;4484;48.928;10.066;2022-12-11T15:28:29;-1.90;99.90
8896;DHT22;4484;48.928;10.066;2022-12-11T15:31:00;-2.00;99.90
8896;DHT22;4484;48.928;10.066;2022-12-11T15:33:27;-2.00;99.90
8896;DHT22;4484;48.928;10.066;2022-12-11T15:36:05;-2.10;99.90
8896;DHT22;4484;48.928;10.066;2022-12-11T15:38:35;-2.10;99.90
8896;DHT22;4484;48.928;10.066;2022-12-11T15:41:03;-2.10;99.90
8896;DHT22;4484;48.928;10.066;2022-12-11T15:43:34;-2.10;99.90
8896;DHT22;4484;48.928;10.066;2022-12-11T15:46:02;-2.20;99.90
8896;DHT22;4484;48.928;10.066;2022-12-11T15:48:30;-2.20;99.90
8896;DHT22;4484;48.928;10.066;2022-12-11T15:50:56;-2.30;99.90
8896;DHT22;4484;48.928;10.066;2022-12-11T15:53:23;-2.30;99.90
8896;DHT22;4484;48.928;10.066;2022-12-11T15:55:51;-2.30;99.90
8896;DHT22;4484;48.928;10.066;2022-12-11T15:58:20;-2.40;99.90
8896;DHT22;4484;48.928;10.066;2022-12-11T16:00:47;-2.40;99.90
8896;DHT22;4484;48.928;10.066;2022-12-11T16:03:17;-2.40;99.90
8896;DHT22;4484;48.928;10.066;2022-12-11T16:05:44;-2.40;99.90
8896;DHT22;4484;48.928;10.066;2022-12-11T16:08:13;-2.40;99.90
8896;DHT22;4484;48.928;10.066;2022-12-11T16:10:42;-2.50;99.90
8896;DHT22;4484;48.928;10.066;2022-12-11T16:13:10;-2.50;99.90
8896;DHT22;4484;48.928;10.066;2022-12-11T16:15:41;-2.50;99.90
8896;DHT22;4484;48.928;10.066;2022-12-11T16:18:17;-2.50;99.90
8896;DHT22;4484;48.928;10.066;2022-12-11T16:20:44;-2.50;99.90
8896;DHT22;4484;48.928;10.066;2022-12-11T16:23:13;-2.50;99.90
8896;DHT22;4484;48.928;10.066;2022-12-11T16:25:41;-2.50;99.90
8896;DHT22;4484;48.928;10.066;2022-12-11T16:28:11;-2.50;99.90
8896;DHT22;4484;48.928;10.066;2022-12-11T16:30:38;-2.50;99.90
8896;DHT22;4484;48.928;10.066;2022-12-11T16:33:06;-2.60;99.90
8896;DHT22;4484;48.928;10.066;2022-12-11T16:35:39;-2.60;99.90
8896;DHT22;4484;48.928;10.066;2022-12-11T16:38:07;-2.60;99.90
8896;DHT22;4484;48.928;10.066;2022-12-11T16:40:36;-2.60;99.90
8896;DHT22;4484;48.928;10.066;2022-12-11T16:43:03;-2.60;99.90
8896;DHT22;4484;48.928;10.066;2022-12-11T16:45:31;-2.60;99.90
8896;DHT22;4484;48.928;10.066;2022-12-11T16:48:00;-2.60;99.90
8896;DHT22;4484;48.928;10.066;2022-12-11T16:50:28;-2.60;99.90
8896;DHT22;4484;48.928;10.066;2022-12-11T16:52:55;-2.60;99.90
8896;DHT22;4484;48.928;10.066;2022-12-11T16:55:22;-2.70;99.90
8896;DHT22;4484;48.928;10.066;2022-12-11T16:57:49;-2.70;99.90
8896;DHT22;4484;48.928;10.066;2022-12-11T17:00:16;-2.70;99.90
8896;DHT22;4484;48.928;10.066;2022-12-11T17:02:43;-2.70;99.90
8896;DHT22;4484;48.928;10.066;2022-12-11T17:05:10;-2.70;99.90
8896;DHT22;4484;48.928;10.066;2022-12-11T17:07:38;-2.70;99.90
8896;DHT22;4484;48.928;10.066;2022-12-11T17:10:06;-2.70;99.90
8896;DHT22;4484;48.928;10.066;2022-12-11T17:12:33;-2.80;99.90
8896;DHT22;4484;48.928;10.066;2022-12-11T17:15:00;-2.80;99.90
8896;DHT22;4484;48.928;10.066;2022-12-11T17:17:27;-2.80;99.90
8896;DHT22;4484;48.928;10.066;2022-12-11T17:19:54;-2.80;99.90
8896;DHT22;4484;48.928;10.066;2022-12-11T17:22:21;-2.80;99.90
8896;DHT22;4484;48.928;10.066;2022-12-11T17:24:48;-2.80;99.90
8896;DHT22;4484;48.928;10.066;2022-12-11T17:27:15;-2.80;99.90
8896;DHT22;4484;48.928;10.066;2022-12-11T17:29:42;-2.80;99.90
8896;DHT22;4484;48.928;10.066;2022-12-11T17:32:10;-2.90;99.90
8896;DHT22;4484;48.928;10.066;2022-12-11T17:34:37;-2.90;99.90
8896;DHT22;4484;48.928;10.066;2022-12-11T17:37:04;-2.90;99.90
8896;DHT22;4484;48.928;10.066;2022-12-11T17:39:32;-2.90;99.90
8896;DHT22;4484;48.928;10.066;2022-12-11T17:41:59;-2.90;99.90
8896;DHT22;4484;48.928;10.066;2022-12-11T17:44:26;-2.90;99.90
8896;DHT22;4484;48.928;10.066;2022-12-11T17:46:57;-3.00;99.90
8896;DHT22;4484;48.928;10.066;2022-12-11T17:49:24;-3.00;99.90
8896;DHT22;4484;48.928;10.066;2022-12-11T17:51:52;-3.00;99.90
8896;DHT22;4484;48.928;10.066;2022-12-11T17:54:22;-3.10;99.90
8896;DHT22;4484;48.928;10.066;2022-12-11T17:56:49;-3.10;99.90
8896;DHT22;4484;48.928;10.066;2022-12-11T17:59:16;-3.10;99.90
8896;DHT22;4484;48.928;10.066;2022-12-11T18:01:44;-3.10;99.90
8896;DHT22;4484;48.928;10.066;2022-12-11T18:04:11;-3.20;99.90
8896;DHT22;4484;48.928;10.066;2022-12-11T18:06:38;-3.20;99.90